AUA25 LOWW-LOWI
Flight info
| Callsign | AUA25 |
|---|---|
| Flight time | 0h 53m |
| Altitude | 30000 |
| Route | SOVIL DCT SITNI DCT BAGSI DCT NANIT NANIT2A |
| Aircraft | A319/M-SDE3FGHIRWY/LB1 |
Departure
| Time | 2026-04-22 18:57 |
|---|---|
| Airport | Vienna International Airport (LOWW) |
Arrival
| Time | 2026-04-22 19:51 |
|---|---|
| Airport | Innsbruck Airport (LOWI) |
| Time | Latitude | Longitude | Altitude | Speed | Heading |
|---|---|---|---|---|---|
| 2026-04-22 18:29 | 48.11701 | 16.56850 | 601 ft | 0 kts | 26° |
| 2026-04-22 18:45 | 48.11689 | 16.56841 | 603 ft | 3 kts | 26° |
| 2026-04-22 18:46 | 48.11670 | 16.56828 | 603 ft | 3 kts | 26° |
| 2026-04-22 18:46 | 48.11652 | 16.56815 | 604 ft | 3 kts | 30° |
| 2026-04-22 18:46 | 48.11636 | 16.56798 | 604 ft | 3 kts | 46° |
| 2026-04-22 18:46 | 48.11626 | 16.56779 | 604 ft | 2 kts | 96° |
| 2026-04-22 18:47 | 48.11627 | 16.56771 | 604 ft | 0 kts | 116° |
| 2026-04-22 18:51 | 48.11625 | 16.56778 | 604 ft | 2 kts | 116° |
| 2026-04-22 18:51 | 48.11614 | 16.56812 | 615 ft | 5 kts | 116° |
| 2026-04-22 18:52 | 48.11613 | 16.56814 | 615 ft | 0 kts | 116° |
| 2026-04-22 18:52 | 48.11612 | 16.56818 | 611 ft | 2 kts | 116° |
| 2026-04-22 18:53 | 48.11606 | 16.56834 | 606 ft | 2 kts | 116° |
| 2026-04-22 18:53 | 48.11595 | 16.56869 | 611 ft | 11 kts | 116° |
| 2026-04-22 18:53 | 48.11538 | 16.57044 | 612 ft | 20 kts | 115° |
| 2026-04-22 18:53 | 48.11478 | 16.57229 | 619 ft | 19 kts | 116° |
| 2026-04-22 18:54 | 48.11421 | 16.57371 | 610 ft | 7 kts | 156° |
| 2026-04-22 18:54 | 48.11364 | 16.57373 | 611 ft | 12 kts | 195° |
| 2026-04-22 18:54 | 48.11277 | 16.57305 | 616 ft | 12 kts | 203° |
| 2026-04-22 18:54 | 48.11265 | 16.57298 | 608 ft | 3 kts | 203° |
| 2026-04-22 18:55 | 48.11233 | 16.57283 | 609 ft | 9 kts | 187° |
| 2026-04-22 18:55 | 48.11174 | 16.57386 | 610 ft | 20 kts | 116° |
| 2026-04-22 18:55 | 48.11113 | 16.57524 | 605 ft | 11 kts | 150° |
| 2026-04-22 18:55 | 48.11059 | 16.57514 | 606 ft | 0 kts | 205° |
| 2026-04-22 18:56 | 48.11040 | 16.57500 | 606 ft | 17 kts | 205° |
| 2026-04-22 18:56 | 48.10982 | 16.57325 | 615 ft | 21 kts | 293° |
| 2026-04-22 18:57 | 48.11088 | 16.57012 | 623 ft | 69 kts | 296° |
| 2026-04-22 18:57 | 48.11441 | 16.55929 | 632 ft | 155 kts | 297° |
| 2026-04-22 18:57 | 48.11894 | 16.54446 | 1450 ft | 162 kts | 292° |
| 2026-04-22 18:57 | 48.11870 | 16.52703 | 2264 ft | 184 kts | 258° |
| 2026-04-22 18:58 | 48.10996 | 16.51077 | 2677 ft | 220 kts | 223° |
| 2026-04-22 18:58 | 48.09767 | 16.49619 | 3370 ft | 228 kts | 222° |
| 2026-04-22 18:58 | 48.08514 | 16.48135 | 4201 ft | 231 kts | 222° |
| 2026-04-22 18:58 | 48.07248 | 16.46616 | 4887 ft | 238 kts | 223° |
| 2026-04-22 18:59 | 48.05937 | 16.44947 | 5425 ft | 259 kts | 224° |
| 2026-04-22 18:59 | 48.04525 | 16.43096 | 6098 ft | 279 kts | 224° |
| 2026-04-22 18:59 | 48.03044 | 16.41148 | 7100 ft | 287 kts | 224° |
| 2026-04-22 18:59 | 48.01527 | 16.39160 | 7714 ft | 291 kts | 224° |
| 2026-04-22 19:00 | 48.00521 | 16.37842 | 8142 ft | 292 kts | 225° |
| 2026-04-22 19:00 | 47.99012 | 16.34551 | 9026 ft | 288 kts | 255° |
| 2026-04-22 19:00 | 47.98730 | 16.31646 | 9688 ft | 283 kts | 277° |
| 2026-04-22 19:00 | 47.98919 | 16.28695 | 10349 ft | 292 kts | 280° |
| 2026-04-22 19:01 | 47.99141 | 16.25560 | 10683 ft | 320 kts | 280° |
| 2026-04-22 19:01 | 47.99381 | 16.22131 | 11379 ft | 333 kts | 279° |
| 2026-04-22 19:01 | 47.99613 | 16.18702 | 12234 ft | 340 kts | 279° |
| 2026-04-22 19:01 | 47.99850 | 16.15108 | 13137 ft | 347 kts | 279° |
| 2026-04-22 19:02 | 48.00081 | 16.11505 | 14000 ft | 353 kts | 279° |
| 2026-04-22 19:02 | 48.00311 | 16.07875 | 14759 ft | 358 kts | 279° |
| 2026-04-22 19:02 | 48.00550 | 16.04100 | 15520 ft | 363 kts | 279° |
| 2026-04-22 19:02 | 48.00787 | 16.00368 | 16244 ft | 368 kts | 279° |
| 2026-04-22 19:03 | 48.01031 | 15.96539 | 17034 ft | 373 kts | 279° |
| 2026-04-22 19:03 | 48.01280 | 15.92652 | 17804 ft | 378 kts | 279° |
| 2026-04-22 19:03 | 48.01531 | 15.88709 | 18552 ft | 383 kts | 279° |
| 2026-04-22 19:03 | 48.01781 | 15.84721 | 19219 ft | 388 kts | 279° |
| 2026-04-22 19:04 | 48.02032 | 15.80686 | 19901 ft | 393 kts | 279° |
| 2026-04-22 19:04 | 48.02285 | 15.76599 | 20575 ft | 397 kts | 279° |
| 2026-04-22 19:04 | 48.02540 | 15.72453 | 21246 ft | 402 kts | 279° |
| 2026-04-22 19:04 | 48.02799 | 15.68267 | 21889 ft | 407 kts | 279° |
| 2026-04-22 19:05 | 48.03061 | 15.64032 | 22544 ft | 412 kts | 279° |
| 2026-04-22 19:05 | 48.03326 | 15.59739 | 23188 ft | 417 kts | 279° |
| 2026-04-22 19:05 | 48.03588 | 15.55403 | 23804 ft | 422 kts | 278° |
| 2026-04-22 19:05 | 48.03850 | 15.51014 | 24299 ft | 427 kts | 278° |
| 2026-04-22 19:06 | 48.04112 | 15.46578 | 24734 ft | 431 kts | 278° |
| 2026-04-22 19:06 | 48.04376 | 15.42078 | 25163 ft | 437 kts | 278° |
| 2026-04-22 19:06 | 48.04636 | 15.37593 | 25648 ft | 441 kts | 277° |
| 2026-04-22 19:07 | 48.04928 | 15.28385 | 26694 ft | 447 kts | 274° |
| 2026-04-22 19:07 | 48.04977 | 15.23721 | 27165 ft | 451 kts | 273° |
| 2026-04-22 19:07 | 48.05002 | 15.19026 | 27714 ft | 452 kts | 272° |
| 2026-04-22 19:07 | 48.05027 | 15.14326 | 28265 ft | 452 kts | 273° |
| 2026-04-22 19:08 | 48.05066 | 15.09612 | 28742 ft | 455 kts | 273° |
| 2026-04-22 19:08 | 48.05123 | 15.04866 | 29224 ft | 459 kts | 273° |
| 2026-04-22 19:08 | 48.05190 | 15.00082 | 29656 ft | 463 kts | 273° |
| 2026-04-22 19:08 | 48.05261 | 14.95253 | 30108 ft | 466 kts | 273° |
| 2026-04-22 19:09 | 48.05330 | 14.90393 | 30261 ft | 469 kts | 273° |
| 2026-04-22 19:09 | 48.05437 | 14.82292 | 30275 ft | 469 kts | 273° |
| 2026-04-22 19:10 | 48.05546 | 14.70896 | 30277 ft | 469 kts | 272° |
| 2026-04-22 19:10 | 48.05607 | 14.61146 | 30277 ft | 469 kts | 272° |
| 2026-04-22 19:11 | 48.05664 | 14.51438 | 30278 ft | 465 kts | 272° |
| 2026-04-22 19:11 | 48.05720 | 14.41777 | 30271 ft | 464 kts | 272° |
| 2026-04-22 19:12 | 48.05580 | 14.32127 | 30262 ft | 465 kts | 263° |
| 2026-04-22 19:12 | 48.03771 | 14.22865 | 30257 ft | 466 kts | 244° |
| 2026-04-22 19:13 | 48.00908 | 14.14242 | 30232 ft | 466 kts | 243° |
| 2026-04-22 19:13 | 47.98018 | 14.05523 | 30254 ft | 465 kts | 243° |
| 2026-04-22 19:14 | 47.95163 | 13.96932 | 30263 ft | 465 kts | 243° |
| 2026-04-22 19:14 | 47.93725 | 13.92619 | 30120 ft | 463 kts | 243° |
| 2026-04-22 19:14 | 47.92292 | 13.88331 | 29759 ft | 461 kts | 243° |
| 2026-04-22 19:14 | 47.90863 | 13.84061 | 29469 ft | 460 kts | 243° |
| 2026-04-22 19:15 | 47.89896 | 13.81178 | 29286 ft | 459 kts | 243° |
| 2026-04-22 19:15 | 47.88009 | 13.75567 | 28909 ft | 456 kts | 243° |
| 2026-04-22 19:15 | 47.86587 | 13.71353 | 28628 ft | 454 kts | 243° |
| 2026-04-22 19:15 | 47.85171 | 13.67165 | 28338 ft | 452 kts | 243° |
| 2026-04-22 19:16 | 47.83759 | 13.62987 | 28092 ft | 450 kts | 244° |
| 2026-04-22 19:16 | 47.82360 | 13.58839 | 27810 ft | 446 kts | 244° |
| 2026-04-22 19:16 | 47.80974 | 13.54735 | 27537 ft | 443 kts | 244° |
| 2026-04-22 19:16 | 47.79592 | 13.50653 | 27270 ft | 441 kts | 244° |
| 2026-04-22 19:17 | 47.78210 | 13.46590 | 27005 ft | 439 kts | 244° |
| 2026-04-22 19:17 | 47.77297 | 13.43911 | 26827 ft | 437 kts | 244° |
| 2026-04-22 19:17 | 47.75923 | 13.39887 | 26567 ft | 435 kts | 244° |
| 2026-04-22 19:17 | 47.74555 | 13.35885 | 26319 ft | 433 kts | 244° |
| 2026-04-22 19:18 | 47.73193 | 13.31905 | 26053 ft | 431 kts | 244° |
| 2026-04-22 19:18 | 47.71396 | 13.26655 | 25716 ft | 429 kts | 244° |
| 2026-04-22 19:18 | 47.70045 | 13.22711 | 25469 ft | 427 kts | 244° |
| 2026-04-22 19:18 | 47.68703 | 13.18791 | 25221 ft | 425 kts | 244° |
| 2026-04-22 19:19 | 47.67795 | 13.16151 | 25071 ft | 424 kts | 245° |
| 2026-04-22 19:19 | 47.66456 | 13.12272 | 24827 ft | 421 kts | 245° |
| 2026-04-22 19:19 | 47.65122 | 13.08418 | 24560 ft | 419 kts | 245° |
| 2026-04-22 19:19 | 47.63793 | 13.04573 | 24321 ft | 419 kts | 245° |
| 2026-04-22 19:20 | 47.62465 | 13.00738 | 24086 ft | 417 kts | 245° |
| 2026-04-22 19:20 | 47.61140 | 12.96917 | 23846 ft | 416 kts | 245° |
| 2026-04-22 19:20 | 47.59828 | 12.93106 | 23559 ft | 414 kts | 246° |
| 2026-04-22 19:20 | 47.58958 | 12.89088 | 23305 ft | 405 kts | 263° |
| 2026-04-22 19:21 | 47.58516 | 12.84996 | 22798 ft | 401 kts | 264° |
| 2026-04-22 19:21 | 47.58101 | 12.80904 | 22117 ft | 402 kts | 264° |
| 2026-04-22 19:21 | 47.57693 | 12.76818 | 21555 ft | 400 kts | 265° |
| 2026-04-22 19:21 | 47.57285 | 12.72762 | 21022 ft | 397 kts | 265° |
| 2026-04-22 19:22 | 47.56883 | 12.68730 | 20510 ft | 394 kts | 265° |
| 2026-04-22 19:22 | 47.56577 | 12.64726 | 20027 ft | 389 kts | 267° |
| 2026-04-22 19:22 | 47.56225 | 12.60813 | 19535 ft | 387 kts | 265° |
| 2026-04-22 19:22 | 47.55832 | 12.56882 | 19038 ft | 385 kts | 264° |
| 2026-04-22 19:23 | 47.55439 | 12.52981 | 18542 ft | 382 kts | 264° |
| 2026-04-22 19:23 | 47.55049 | 12.49109 | 17985 ft | 379 kts | 264° |
| 2026-04-22 19:23 | 47.54662 | 12.45263 | 17422 ft | 376 kts | 264° |
| 2026-04-22 19:23 | 47.54276 | 12.41446 | 16892 ft | 373 kts | 264° |
| 2026-04-22 19:24 | 47.53893 | 12.37664 | 16309 ft | 371 kts | 264° |
| 2026-04-22 19:24 | 47.53513 | 12.33904 | 15799 ft | 368 kts | 264° |
| 2026-04-22 19:24 | 47.53136 | 12.30175 | 15305 ft | 365 kts | 264° |
| 2026-04-22 19:24 | 47.52771 | 12.26473 | 14827 ft | 362 kts | 264° |
| 2026-04-22 19:25 | 47.52407 | 12.22793 | 14324 ft | 360 kts | 264° |
| 2026-04-22 19:25 | 47.52047 | 12.19137 | 13800 ft | 358 kts | 264° |
| 2026-04-22 19:25 | 47.51694 | 12.15514 | 13291 ft | 355 kts | 264° |
| 2026-04-22 19:25 | 47.51351 | 12.11909 | 13043 ft | 353 kts | 264° |
| 2026-04-22 19:26 | 47.51013 | 12.08307 | 13063 ft | 354 kts | 264° |
| 2026-04-22 19:26 | 47.50675 | 12.04705 | 13063 ft | 354 kts | 264° |
| 2026-04-22 19:26 | 47.50338 | 12.01100 | 13061 ft | 354 kts | 265° |
| 2026-04-22 19:26 | 47.50133 | 11.97480 | 13062 ft | 353 kts | 269° |
| 2026-04-22 19:27 | 47.49997 | 11.93857 | 13058 ft | 353 kts | 269° |
| 2026-04-22 19:27 | 47.49863 | 11.90232 | 13060 ft | 353 kts | 269° |
| 2026-04-22 19:27 | 47.49729 | 11.86607 | 13061 ft | 353 kts | 269° |
| 2026-04-22 19:27 | 47.49596 | 11.83033 | 13060 ft | 353 kts | 269° |
| 2026-04-22 19:28 | 47.49464 | 11.79409 | 13064 ft | 353 kts | 269° |
| 2026-04-22 19:28 | 47.49329 | 11.75788 | 13061 ft | 353 kts | 269° |
| 2026-04-22 19:28 | 47.49196 | 11.72164 | 13051 ft | 353 kts | 269° |
| 2026-04-22 19:28 | 47.49065 | 11.68540 | 13055 ft | 353 kts | 269° |
| 2026-04-22 19:29 | 47.48933 | 11.64908 | 13052 ft | 353 kts | 269° |
| 2026-04-22 19:29 | 47.48801 | 11.61286 | 13048 ft | 353 kts | 269° |
| 2026-04-22 19:29 | 47.48669 | 11.57659 | 13044 ft | 353 kts | 269° |
| 2026-04-22 19:29 | 47.48534 | 11.54026 | 13035 ft | 353 kts | 269° |
| 2026-04-22 19:30 | 47.48444 | 11.51629 | 13036 ft | 353 kts | 269° |
| 2026-04-22 19:30 | 47.48262 | 11.46781 | 13036 ft | 353 kts | 269° |
| 2026-04-22 19:30 | 47.48127 | 11.43211 | 13030 ft | 340 kts | 269° |
| 2026-04-22 19:30 | 47.47996 | 11.39804 | 13026 ft | 324 kts | 269° |
| 2026-04-22 19:31 | 47.47863 | 11.36564 | 13042 ft | 309 kts | 269° |
| 2026-04-22 19:31 | 47.47545 | 11.33507 | 13038 ft | 296 kts | 257° |
| 2026-04-22 19:31 | 47.46958 | 11.30658 | 13034 ft | 285 kts | 254° |
| 2026-04-22 19:31 | 47.46359 | 11.27881 | 13039 ft | 282 kts | 254° |
| 2026-04-22 19:32 | 47.45760 | 11.25122 | 13044 ft | 282 kts | 254° |
| 2026-04-22 19:32 | 47.45163 | 11.22373 | 13047 ft | 280 kts | 254° |
| 2026-04-22 19:32 | 47.44568 | 11.19632 | 13048 ft | 280 kts | 254° |
| 2026-04-22 19:32 | 47.43974 | 11.16896 | 13047 ft | 280 kts | 254° |
| 2026-04-22 19:33 | 47.43380 | 11.14161 | 13045 ft | 280 kts | 254° |
| 2026-04-22 19:33 | 47.42784 | 11.11425 | 13046 ft | 280 kts | 254° |
| 2026-04-22 19:33 | 47.42189 | 11.08687 | 13045 ft | 280 kts | 254° |
| 2026-04-22 19:33 | 47.41599 | 11.05947 | 13036 ft | 280 kts | 254° |
| 2026-04-22 19:34 | 47.41011 | 11.03200 | 13038 ft | 281 kts | 254° |
| 2026-04-22 19:34 | 47.40420 | 11.00446 | 13037 ft | 281 kts | 254° |
| 2026-04-22 19:34 | 47.39823 | 10.97707 | 13039 ft | 280 kts | 254° |
| 2026-04-22 19:34 | 47.39222 | 10.94969 | 13034 ft | 280 kts | 254° |
| 2026-04-22 19:35 | 47.38623 | 10.92254 | 12728 ft | 277 kts | 254° |
| 2026-04-22 19:35 | 47.38036 | 10.89552 | 12384 ft | 276 kts | 254° |
| 2026-04-22 19:35 | 47.37458 | 10.86868 | 12035 ft | 274 kts | 254° |
| 2026-04-22 19:35 | 47.36895 | 10.84189 | 11669 ft | 272 kts | 254° |
| 2026-04-22 19:36 | 47.36345 | 10.81536 | 11520 ft | 270 kts | 254° |
| 2026-04-22 19:36 | 47.35801 | 10.78914 | 11532 ft | 271 kts | 254° |
| 2026-04-22 19:36 | 47.35256 | 10.76293 | 11520 ft | 260 kts | 254° |
| 2026-04-22 19:36 | 47.34741 | 10.73823 | 11525 ft | 245 kts | 254° |
| 2026-04-22 19:37 | 47.34255 | 10.71521 | 11547 ft | 229 kts | 254° |
| 2026-04-22 19:37 | 47.33785 | 10.69297 | 11535 ft | 226 kts | 254° |
| 2026-04-22 19:37 | 47.33320 | 10.67091 | 11534 ft | 226 kts | 254° |
| 2026-04-22 19:37 | 47.32852 | 10.64885 | 11527 ft | 225 kts | 254° |
| 2026-04-22 19:38 | 47.32386 | 10.62689 | 11526 ft | 225 kts | 254° |
| 2026-04-22 19:38 | 47.31918 | 10.60486 | 11524 ft | 225 kts | 254° |
| 2026-04-22 19:38 | 47.31412 | 10.58299 | 11525 ft | 226 kts | 246° |
| 2026-04-22 19:38 | 47.30422 | 10.56530 | 11525 ft | 225 kts | 215° |
| 2026-04-22 19:39 | 47.29000 | 10.55676 | 11526 ft | 221 kts | 186° |
| 2026-04-22 19:39 | 47.27501 | 10.55911 | 11516 ft | 216 kts | 157° |
| 2026-04-22 19:39 | 47.26277 | 10.57124 | 11519 ft | 211 kts | 128° |
| 2026-04-22 19:39 | 47.25582 | 10.58977 | 11529 ft | 206 kts | 103° |
| 2026-04-22 19:40 | 47.25508 | 10.61041 | 11517 ft | 201 kts | 78° |
| 2026-04-22 19:40 | 47.26035 | 10.62923 | 11522 ft | 200 kts | 54° |
| 2026-04-22 19:40 | 47.26962 | 10.64442 | 11519 ft | 199 kts | 47° |
| 2026-04-22 19:40 | 47.27909 | 10.65933 | 11530 ft | 200 kts | 47° |
| 2026-04-22 19:41 | 47.28856 | 10.67431 | 11526 ft | 199 kts | 47° |
| 2026-04-22 19:41 | 47.29619 | 10.69098 | 11682 ft | 200 kts | 70° |
| 2026-04-22 19:41 | 47.29693 | 10.71151 | 12052 ft | 203 kts | 91° |
| 2026-04-22 19:41 | 47.29812 | 10.73227 | 12165 ft | 202 kts | 69° |
| 2026-04-22 19:42 | 47.30338 | 10.75136 | 12170 ft | 202 kts | 74° |
| 2026-04-22 19:42 | 47.30448 | 10.77197 | 12190 ft | 203 kts | 86° |
| 2026-04-22 19:42 | 47.30369 | 10.79274 | 12158 ft | 204 kts | 93° |
| 2026-04-22 19:42 | 47.30203 | 10.81351 | 11690 ft | 204 kts | 94° |
| 2026-04-22 19:43 | 47.29869 | 10.85457 | 11535 ft | 202 kts | 93° |
| 2026-04-22 19:43 | 47.29738 | 10.87509 | 11537 ft | 201 kts | 89° |
| 2026-04-22 19:43 | 47.29770 | 10.89569 | 11535 ft | 201 kts | 84° |
| 2026-04-22 19:44 | 47.29856 | 10.91618 | 11534 ft | 201 kts | 83° |
| 2026-04-22 19:44 | 47.29951 | 10.93640 | 11482 ft | 201 kts | 83° |
| 2026-04-22 19:44 | 47.30050 | 10.95712 | 10980 ft | 205 kts | 84° |
| 2026-04-22 19:44 | 47.30145 | 10.97812 | 10493 ft | 205 kts | 84° |
| 2026-04-22 19:45 | 47.30232 | 10.99895 | 10054 ft | 203 kts | 84° |
| 2026-04-22 19:45 | 47.30313 | 11.01957 | 9599 ft | 200 kts | 84° |
| 2026-04-22 19:45 | 47.30388 | 11.03967 | 9534 ft | 195 kts | 85° |
| 2026-04-22 19:45 | 47.30458 | 11.05891 | 9528 ft | 178 kts | 85° |
| 2026-04-22 19:46 | 47.30520 | 11.07600 | 9526 ft | 154 kts | 85° |
| 2026-04-22 19:46 | 47.30489 | 11.09071 | 9485 ft | 139 kts | 101° |
| 2026-04-22 19:46 | 47.30161 | 11.10399 | 9506 ft | 138 kts | 109° |
| 2026-04-22 19:46 | 47.29759 | 11.11650 | 9335 ft | 133 kts | 110° |
| 2026-04-22 19:47 | 47.29378 | 11.12902 | 9008 ft | 135 kts | 111° |
| 2026-04-22 19:47 | 47.28999 | 11.14157 | 8685 ft | 133 kts | 110° |
| 2026-04-22 19:47 | 47.28746 | 11.15001 | 8438 ft | 134 kts | 111° |
| 2026-04-22 19:47 | 47.28241 | 11.16686 | 7841 ft | 142 kts | 112° |
| 2026-04-22 19:48 | 47.27839 | 11.18025 | 7385 ft | 144 kts | 112° |
| 2026-04-22 19:48 | 47.27392 | 11.19372 | 6897 ft | 149 kts | 116° |
| 2026-04-22 19:48 | 47.26902 | 11.20756 | 6303 ft | 155 kts | 116° |
| 2026-04-22 19:48 | 47.26365 | 11.22179 | 5546 ft | 164 kts | 118° |
| 2026-04-22 19:49 | 47.25872 | 11.23686 | 4912 ft | 161 kts | 108° |
| 2026-04-22 19:49 | 47.25582 | 11.25296 | 4235 ft | 165 kts | 100° |
| 2026-04-22 19:49 | 47.25470 | 11.26978 | 3618 ft | 165 kts | 89° |
| 2026-04-22 19:49 | 47.25541 | 11.28654 | 3060 ft | 161 kts | 85° |
| 2026-04-22 19:50 | 47.25621 | 11.30266 | 2580 ft | 154 kts | 84° |
| 2026-04-22 19:50 | 47.25744 | 11.31779 | 2214 ft | 143 kts | 80° |
| 2026-04-22 19:50 | 47.25886 | 11.33153 | 1958 ft | 131 kts | 79° |
| 2026-04-22 19:50 | 47.26003 | 11.34269 | 1905 ft | 71 kts | 79° |
| 2026-04-22 19:51 | 47.26035 | 11.34537 | 1907 ft | 33 kts | 82° |
| 2026-04-22 19:51 | 47.26086 | 11.35035 | 1902 ft | 45 kts | 78° |
| 2026-04-22 19:51 | 47.26047 | 11.35260 | 1901 ft | 6 kts | 167° |
| 2026-04-22 19:51 | 47.26044 | 11.35261 | 1903 ft | 2 kts | 167° |
| 2026-04-22 19:52 | 47.25988 | 11.35278 | 1907 ft | 15 kts | 169° |
| 2026-04-22 19:52 | 47.25899 | 11.35239 | 1907 ft | 13 kts | 260° |
| 2026-04-22 19:52 | 47.25892 | 11.35186 | 1901 ft | 0 kts | 259° |
| 2026-04-22 19:54 | 47.25891 | 11.35178 | 1897 ft | 3 kts | 260° |
| 2026-04-22 19:54 | 47.25877 | 11.35084 | 1899 ft | 11 kts | 242° |
| 2026-04-22 19:54 | 47.25823 | 11.35063 | 1902 ft | 0 kts | 177° |
| 2026-04-22 19:54 | 47.25820 | 11.35064 | 1897 ft | 0 kts | 176° |